Terminal Aerodrome Forecast
Issued by NWS Aberdeen, SD

Home | Current Version | Previous Version | Text Only | Print | Product List | Glossary On
Versions: 1 2 3 4 5 6 7 8 9 10 11 12 13 14 15 16 17 18 19 20 21 22 23 24 25 26 27 28 29 30 31 32 33 34 35
000
FTAK31 PAFA 061158
TAFABR
TAF
PABR 061158Z 0612/0712 VRB04KT 1/4SM FZFG VV002
     FM061800 06006KT 2SM BR OVC005
     FM062100 06005KT P6SM BKN007 OVC015
     FM070800 06005KT 2SM BR OVC005=

USA.gov is the U.S. government's official web portal to all federal, state and local government web resources and services.